Time;durP1;ratioP1;P1;durP2;ratioP2;P2;SDS_P1;SDS_P2;PMS_P1;PMS_P2;Temp;Humidity;BMP_temperature;BMP_pressure;BME280_temperature;BME280_humidity;BME280_pressure;Samples;Min_cycle;Max_cycle;Signal;HPM_P1;HPM_P2
2022/07/08 00:01:54;;;;;;;7.47;2.65;;;14.40;99.90;;;;;;5007851;28;20033;-82
2022/07/08 00:04:20;;;;;;;6.22;1.88;;;14.40;99.90;;;;;;5040380;28;20037;-82
2022/07/08 00:06:46;;;;;;;7.43;2.15;;;14.40;99.90;;;;;;5021070;28;20041;-82
2022/07/08 00:09:12;;;;;;;11.63;2.33;;;14.40;99.90;;;;;;5022962;28;20041;-82
2022/07/08 00:11:40;;;;;;;12.85;2.40;;;14.40;99.90;;;;;;5004251;28;20080;-82
2022/07/08 00:14:06;;;;;;;7.57;2.00;;;14.40;99.90;;;;;;5039335;28;20060;-82
2022/07/08 00:16:33;;;;;;;7.80;2.30;;;14.40;99.90;;;;;;5037085;28;20052;-82
2022/07/08 00:19:00;;;;;;;10.40;2.47;;;14.40;99.90;;;;;;5037210;28;20045;-82
2022/07/08 00:21:25;;;;;;;6.78;2.10;;;14.40;99.90;;;;;;5039786;28;20116;-82
2022/07/08 00:23:51;;;;;;;7.40;2.15;;;14.40;99.90;;;;;;5028314;28;20124;-82
2022/07/08 00:26:17;;;;;;;8.40;2.25;;;14.40;99.90;;;;;;5021337;28;20041;-82
2022/07/08 00:28:43;;;;;;;7.45;2.13;;;14.40;99.90;;;;;;5042638;28;20045;-82
2022/07/08 00:31:08;;;;;;;8.35;2.05;;;14.40;99.90;;;;;;5023273;28;20165;-81
2022/07/08 00:33:34;;;;;;;9.07;2.30;;;14.40;99.90;;;;;;5045911;28;20784;-82
2022/07/08 00:36:00;;;;;;;8.02;2.33;;;14.40;99.90;;;;;;5020886;28;20049;-82
2022/07/08 00:38:26;;;;;;;10.02;2.42;;;14.30;99.90;;;;;;5040817;28;20287;-82
2022/07/08 00:40:52;;;;;;;7.68;2.20;;;14.30;99.90;;;;;;5012549;28;20033;-82
2022/07/08 00:43:53;;;;;;;8.80;2.15;;;14.30;99.90;;;;;;5038511;28;20029;-81
2022/07/08 00:46:19;;;;;;;7.80;1.83;;;14.30;99.90;;;;;;5045201;28;20490;-81
2022/07/08 00:48:45;;;;;;;9.13;2.05;;;14.30;99.90;;;;;;5024895;28;20282;-82
2022/07/08 00:51:14;;;;;;;6.65;2.03;;;14.30;99.90;;;;;;5050642;28;20037;-82
2022/07/08 00:53:43;;;;;;;7.57;2.20;;;14.30;99.90;;;;;;5056434;28;20045;-82
2022/07/08 00:56:10;;;;;;;8.40;1.92;;;14.30;99.90;;;;;;5029404;28;20095;-82
2022/07/08 00:58:37;;;;;;;7.15;2.00;;;14.30;99.90;;;;;;5011270;28;20137;-82
2022/07/08 01:01:03;;;;;;;7.38;1.98;;;14.30;99.90;;;;;;5041537;28;20041;-82
2022/07/08 01:03:29;;;;;;;7.78;2.10;;;14.30;99.90;;;;;;5010705;28;20485;-82
2022/07/08 01:05:55;;;;;;;8.40;2.15;;;14.30;99.90;;;;;;5018863;28;20044;-81
2022/07/08 01:08:21;;;;;;;11.38;2.20;;;14.20;99.90;;;;;;5026911;28;20041;-82
2022/07/08 01:10:47;;;;;;;8.43;2.38;;;14.30;99.90;;;;;;5025346;28;20065;-81
2022/07/08 01:13:13;;;;;;;8.05;2.15;;;14.30;99.90;;;;;;5043843;28;20068;-82
2022/07/08 01:15:39;;;;;;;5.72;2.40;;;14.20;99.90;;;;;;5009357;28;20103;-81
2022/07/08 01:18:05;;;;;;;8.82;2.38;;;14.20;99.90;;;;;;5010856;28;20547;-81
2022/07/08 01:20:32;;;;;;;8.88;2.75;;;14.20;99.90;;;;;;5031312;28;20041;-81
2022/07/08 01:22:58;;;;;;;5.85;2.30;;;14.10;99.90;;;;;;5042690;28;20041;-81
2022/07/08 01:25:24;;;;;;;8.68;2.10;;;14.10;99.90;;;;;;5026076;28;20033;-82
2022/07/08 01:27:50;;;;;;;7.40;2.08;;;14.10;99.90;;;;;;5023262;28;20037;-83
2022/07/08 01:30:15;;;;;;;7.70;2.05;;;14.00;99.90;;;;;;5009666;28;20092;-82
2022/07/08 01:32:41;;;;;;;6.97;2.10;;;14.00;99.90;;;;;;5011470;28;20041;-81
2022/07/08 01:35:08;;;;;;;5.75;1.90;;;13.90;99.90;;;;;;5027391;28;20090;-82
2022/07/08 01:37:34;;;;;;;8.23;2.38;;;13.80;99.90;;;;;;5040240;28;20073;-81
2022/07/08 01:40:00;;;;;;;7.28;1.98;;;13.80;99.90;;;;;;5029128;28;20052;-82
2022/07/08 01:42:26;;;;;;;8.45;2.03;;;13.70;99.90;;;;;;5009417;28;20349;-81
2022/07/08 01:44:52;;;;;;;14.50;2.85;;;13.70;99.90;;;;;;5013603;28;20064;-81
2022/07/08 01:47:19;;;;;;;11.77;2.33;;;13.70;99.90;;;;;;5024778;28;20103;-82
2022/07/08 01:49:45;;;;;;;9.82;2.05;;;13.60;99.90;;;;;;5006842;28;20044;-82
2022/07/08 01:52:11;;;;;;;8.27;2.28;;;13.60;99.90;;;;;;5005273;28;20048;-82
2022/07/08 01:54:36;;;;;;;7.28;2.28;;;13.60;99.90;;;;;;5035852;28;20049;-82
2022/07/08 01:57:14;;;;;;;5.80;2.00;;;13.50;99.90;;;;;;5022041;28;20040;-81
2022/07/08 01:59:41;;;;;;;6.97;2.07;;;13.50;99.90;;;;;;5040009;28;20124;-81
2022/07/08 02:02:07;;;;;;;7.47;2.22;;;13.50;99.90;;;;;;5018971;28;20044;-82
2022/07/08 02:04:32;;;;;;;4.55;1.83;;;13.40;99.90;;;;;;5021928;28;20042;-82
2022/07/08 02:06:58;;;;;;;7.53;2.40;;;13.40;99.90;;;;;;4987970;28;20251;-82
2022/07/08 02:09:24;;;;;;;9.85;2.85;;;13.30;99.90;;;;;;5001974;28;20029;-82
2022/07/08 02:14:33;;;;;;;10.03;2.73;;;13.30;99.90;;;;;;5023165;28;20053;-82
2022/07/08 02:16:59;;;;;;;6.67;2.50;;;13.30;99.90;;;;;;5020543;28;20069;-82
2022/07/08 02:19:25;;;;;;;5.60;2.20;;;13.30;99.90;;;;;;5020983;28;20176;-82
2022/07/08 02:21:51;;;;;;;8.27;2.67;;;13.20;99.90;;;;;;5039411;28;20041;-82
2022/07/08 02:24:17;;;;;;;7.50;2.20;;;13.20;99.90;;;;;;5025024;28;20037;-82
2022/07/08 02:26:42;;;;;;;10.23;2.38;;;13.20;99.90;;;;;;5034783;28;20028;-82
2022/07/08 02:29:11;;;;;;;6.93;2.10;;;13.20;99.90;;;;;;5024204;28;20045;-82
2022/07/08 02:31:37;;;;;;;5.60;2.20;;;13.10;99.90;;;;;;5006007;28;20041;-82
2022/07/08 02:34:03;;;;;;;5.37;2.17;;;13.10;99.90;;;;;;5035211;28;20413;-81
2022/07/08 02:36:29;;;;;;;6.73;2.50;;;13.10;99.90;;;;;;5020168;28;20098;-82
2022/07/08 02:38:55;;;;;;;10.73;2.10;;;13.10;99.90;;;;;;5024802;28;20051;-82
2022/07/08 02:41:21;;;;;;;5.93;2.20;;;13.00;99.90;;;;;;5024345;28;20051;-82
2022/07/08 02:43:46;;;;;;;5.70;2.30;;;13.00;99.90;;;;;;5038188;28;20041;-82
2022/07/08 02:46:12;;;;;;;8.43;2.13;;;13.00;99.90;;;;;;5022307;28;20561;-82
2022/07/08 02:48:38;;;;;;;5.27;2.27;;;12.90;99.90;;;;;;5022107;28;20048;-82
2022/07/08 02:51:03;;;;;;;5.73;2.23;;;12.90;99.90;;;;;;5008353;28;20048;-82
2022/07/08 02:53:29;;;;;;;5.27;2.30;;;12.90;99.90;;;;;;5007430;28;20033;-82
2022/07/08 02:55:55;;;;;;;9.80;2.20;;;12.90;99.90;;;;;;5022244;28;20041;-82
2022/07/08 02:58:20;;;;;;;10.57;2.63;;;12.90;99.90;;;;;;5000761;28;20040;-82
2022/07/08 03:00:46;;;;;;;4.87;2.43;;;12.90;99.90;;;;;;5019372;28;20518;-82
2022/07/08 03:03:12;;;;;;;4.87;2.30;;;12.90;99.90;;;;;;5022441;28;20076;-82
2022/07/08 03:05:38;;;;;;;7.63;2.33;;;12.90;99.90;;;;;;5022385;28;20439;-83
2022/07/08 03:08:03;;;;;;;7.33;2.97;;;12.90;99.90;;;;;;5020113;28;20492;-81
2022/07/08 03:10:29;;;;;;;6.10;2.20;;;12.90;99.90;;;;;;5006193;28;20258;-82
2022/07/08 03:12:55;;;;;;;10.57;2.53;;;12.80;99.90;;;;;;5001345;28;20056;-82
2022/07/08 03:15:21;;;;;;;6.47;2.50;;;12.90;99.90;;;;;;5037575;28;20049;-82
2022/07/08 03:17:46;;;;;;;13.03;2.50;;;12.80;99.90;;;;;;5022640;28;20056;-81
2022/07/08 03:20:12;;;;;;;7.23;2.47;;;12.90;99.90;;;;;;5022381;28;20183;-81
2022/07/08 03:22:38;;;;;;;7.23;2.23;;;12.90;99.90;;;;;;5003530;28;20136;-82
2022/07/08 03:25:04;;;;;;;7.97;2.60;;;12.90;99.90;;;;;;5033030;28;20029;-81
2022/07/08 03:27:30;;;;;;;9.10;3.00;;;12.80;99.90;;;;;;5036058;28;20033;-81
2022/07/08 03:29:56;;;;;;;6.20;2.67;;;12.80;99.90;;;;;;5026924;28;20032;-81
2022/07/08 03:32:23;;;;;;;8.03;2.20;;;12.80;99.90;;;;;;5030825;28;20083;-81
2022/07/08 03:34:49;;;;;;;11.00;2.83;;;12.80;99.90;;;;;;5038388;28;20051;-82
2022/07/08 03:37:15;;;;;;;8.33;2.40;;;12.80;99.90;;;;;;4991451;28;20041;-81
2022/07/08 03:39:40;;;;;;;9.07;2.40;;;12.80;99.90;;;;;;5025660;28;20049;-81
2022/07/08 03:42:06;;;;;;;10.80;2.87;;;12.80;99.90;;;;;;5009114;28;20266;-82
2022/07/08 03:44:32;;;;;;;7.20;2.93;;;12.80;99.90;;;;;;5024692;28;20091;-82
2022/07/08 03:46:58;;;;;;;7.60;2.77;;;12.80;99.90;;;;;;5025904;28;20493;-81
2022/07/08 03:49:24;;;;;;;6.87;2.33;;;12.80;99.90;;;;;;5027083;28;20049;-82
2022/07/08 03:51:49;;;;;;;11.57;3.47;;;12.90;99.90;;;;;;5029285;28;20512;-82
2022/07/08 03:54:15;;;;;;;7.90;2.70;;;12.90;99.90;;;;;;5040638;28;20045;-82
2022/07/08 03:56:41;;;;;;;8.60;2.93;;;12.90;99.90;;;;;;5006405;28;20132;-82
2022/07/08 03:59:06;;;;;;;8.33;2.80;;;13.00;99.90;;;;;;4987430;28;20038;-82
2022/07/08 04:01:32;;;;;;;9.77;3.80;;;13.00;99.90;;;;;;5007268;28;20037;-82
2022/07/08 04:03:58;;;;;;;9.77;3.60;;;13.00;99.90;;;;;;5027195;28;20472;-81
2022/07/08 04:06:23;;;;;;;11.23;4.00;;;12.90;99.90;;;;;;5024931;28;20674;-82
2022/07/08 04:08:49;;;;;;;7.60;3.97;;;13.00;99.90;;;;;;5022596;28;20392;-81
2022/07/08 04:11:15;;;;;;;13.33;4.27;;;13.00;99.90;;;;;;5041507;28;20037;-81
2022/07/08 04:13:41;;;;;;;11.97;4.07;;;13.00;99.90;;;;;;5026407;28;20041;-80
2022/07/08 04:16:16;;;;;;;7.70;3.50;;;12.90;99.90;;;;;;5032749;28;20143;-81
2022/07/08 04:18:42;;;;;;;9.50;3.93;;;12.90;99.90;;;;;;5030352;28;20128;-82
2022/07/08 04:21:08;;;;;;;10.83;3.60;;;12.90;99.90;;;;;;5048504;28;20032;-81
2022/07/08 04:23:35;;;;;;;8.07;3.60;;;12.90;99.90;;;;;;5042792;28;20489;-82
2022/07/08 04:26:01;;;;;;;11.37;4.00;;;12.90;99.90;;;;;;5046775;28;20079;-82
2022/07/08 04:28:27;;;;;;;9.50;3.37;;;12.90;99.90;;;;;;5047095;28;20044;-82
2022/07/08 04:30:53;;;;;;;11.57;4.10;;;12.90;99.90;;;;;;5014687;28;20450;-82
2022/07/08 04:33:19;;;;;;;11.90;3.90;;;12.90;99.90;;;;;;5047994;28;20098;-82
2022/07/08 04:35:44;;;;;;;10.90;3.50;;;12.90;99.90;;;;;;5029250;28;20920;-82
2022/07/08 04:38:10;;;;;;;10.70;3.77;;;12.90;99.90;;;;;;5027114;28;20078;-82
2022/07/08 04:40:36;;;;;;;9.03;3.30;;;12.90;99.90;;;;;;5027804;28;20480;-82
2022/07/08 04:43:02;;;;;;;11.77;3.67;;;12.90;99.90;;;;;;5042733;28;20532;-82
2022/07/08 04:45:27;;;;;;;9.27;3.77;;;12.90;99.90;;;;;;5030745;28;20063;-82
2022/07/08 04:47:53;;;;;;;10.60;3.70;;;13.00;99.90;;;;;;5014117;28;20090;-82
2022/07/08 04:50:19;;;;;;;10.57;3.70;;;13.00;99.90;;;;;;5033742;28;20044;-82
2022/07/08 04:52:47;;;;;;;12.97;4.20;;;13.10;99.90;;;;;;5033581;28;20036;-81
2022/07/08 04:55:29;;;;;;;11.70;3.60;;;13.10;99.90;;;;;;5046269;28;20083;-81
2022/07/08 04:58:00;;;;;;;10.70;3.40;;;13.10;99.90;;;;;;5045119;28;20040;-82
2022/07/08 05:00:27;;;;;;;11.27;3.67;;;13.20;99.90;;;;;;5045052;28;20158;-82
2022/07/08 05:02:52;;;;;;;6.97;3.73;;;13.20;99.90;;;;;;5030318;28;20279;-82
2022/07/08 05:05:19;;;;;;;10.47;3.83;;;13.20;99.90;;;;;;5034089;28;20093;-82
2022/07/08 05:07:47;;;;;;;14.73;3.80;;;13.30;99.90;;;;;;5015419;28;20041;-82
2022/07/08 05:10:14;;;;;;;9.97;3.60;;;13.40;99.90;;;;;;5036578;28;20507;-82
2022/07/08 05:12:40;;;;;;;9.57;3.40;;;13.40;99.90;;;;;;5048882;28;20185;-82
2022/07/08 05:15:06;;;;;;;13.60;4.17;;;13.50;99.90;;;;;;5044340;28;20059;-82
2022/07/08 05:17:32;;;;;;;9.87;4.17;;;13.50;99.90;;;;;;5029138;28;20042;-82
2022/07/08 05:19:59;;;;;;;11.33;3.53;;;13.60;99.90;;;;;;5041713;28;20056;-82
2022/07/08 05:22:24;;;;;;;9.67;3.70;;;13.70;99.90;;;;;;5039419;28;20044;-81
2022/07/08 05:24:50;;;;;;;9.33;3.03;;;13.90;99.90;;;;;;5040218;28;20036;-81
2022/07/08 05:27:16;;;;;;;7.70;2.90;;;14.00;99.90;;;;;;5024723;28;20035;-84
2022/07/08 05:29:41;;;;;;;8.17;2.90;;;14.10;99.90;;;;;;5008610;28;20447;-82
2022/07/08 05:32:07;;;;;;;10.50;3.00;;;14.10;99.90;;;;;;5010382;28;20037;-82
2022/07/08 05:34:33;;;;;;;16.43;3.10;;;14.20;99.90;;;;;;5007808;28;20553;-81
2022/07/08 05:36:59;;;;;;;12.33;3.37;;;14.20;99.90;;;;;;5023864;28;20389;-81
2022/07/08 05:39:24;;;;;;;12.93;3.10;;;14.30;99.90;;;;;;5031399;28;20045;-83
2022/07/08 05:41:51;;;;;;;12.53;3.00;;;14.30;99.90;;;;;;5029056;28;20095;-82
2022/07/08 05:44:17;;;;;;;8.68;2.80;;;14.40;99.90;;;;;;5006829;28;20044;-82
2022/07/08 05:46:43;;;;;;;6.25;2.78;;;14.50;99.90;;;;;;5028541;28;20032;-81
2022/07/08 05:49:09;;;;;;;11.00;3.00;;;14.50;99.90;;;;;;5043686;28;20049;-84
2022/07/08 05:51:35;;;;;;;9.90;2.60;;;14.50;99.90;;;;;;5024601;28;20053;-82
2022/07/08 05:54:01;;;;;;;11.02;3.13;;;14.50;99.90;;;;;;5023310;28;20037;-82
2022/07/08 05:56:26;;;;;;;6.50;2.55;;;14.60;99.90;;;;;;5025149;28;20052;-82
2022/07/08 05:58:52;;;;;;;10.07;3.15;;;14.70;99.90;;;;;;5025212;28;20041;-82
2022/07/08 06:01:18;;;;;;;11.27;4.75;;;14.80;99.90;;;;;;5004265;28;20056;-82
2022/07/08 06:03:44;;;;;;;7.90;2.72;;;15.00;99.90;;;;;;5027002;28;20017;-82
2022/07/08 06:06:09;;;;;;;11.73;3.10;;;15.10;99.90;;;;;;5014578;28;20377;-82
2022/07/08 06:08:35;;;;;;;8.27;2.60;;;15.30;99.90;;;;;;5028450;28;20069;-82
2022/07/08 06:11:01;;;;;;;9.27;2.35;;;15.40;99.90;;;;;;5015554;28;20048;-82
2022/07/08 06:13:27;;;;;;;15.32;2.80;;;15.50;99.90;;;;;;5012134;28;20040;-83
2022/07/08 06:15:53;;;;;;;6.88;2.55;;;15.50;99.90;;;;;;4992125;28;20045;-83
2022/07/08 06:18:19;;;;;;;8.13;2.47;;;15.60;99.90;;;;;;5006828;28;20511;-82
2022/07/08 06:20:45;;;;;;;10.82;2.78;;;15.80;99.90;;;;;;5021926;28;20560;-83
2022/07/08 06:23:11;;;;;;;9.20;2.60;;;15.90;99.90;;;;;;5008657;28;20033;-82
2022/07/08 06:25:38;;;;;;;8.68;2.70;;;16.00;99.90;;;;;;5023852;28;20036;-82
2022/07/08 06:28:04;;;;;;;9.45;2.35;;;16.00;99.90;;;;;;5004606;28;20459;-82
2022/07/08 06:30:29;;;;;;;12.13;2.45;;;16.00;99.90;;;;;;5018639;28;20080;-82
2022/07/08 06:32:55;;;;;;;11.90;2.90;;;16.00;99.90;;;;;;5023340;28;20068;-82
2022/07/08 06:35:21;;;;;;;12.52;2.38;;;16.00;99.90;;;;;;5045347;28;20552;-81
2022/07/08 06:37:50;;;;;;;7.90;2.50;;;16.00;99.90;;;;;;5028932;28;20087;-81
2022/07/08 06:40:16;;;;;;;10.63;2.63;;;16.10;99.90;;;;;;5029866;28;20087;-82
2022/07/08 06:42:42;;;;;;;11.43;3.00;;;16.10;99.90;;;;;;5005762;28;20034;-82
2022/07/08 06:45:08;;;;;;;7.18;2.65;;;16.20;99.90;;;;;;4999193;28;20443;-85
2022/07/08 06:47:34;;;;;;;7.95;3.08;;;16.20;99.90;;;;;;5014882;28;20530;-81
2022/07/08 06:49:59;;;;;;;11.57;2.60;;;16.20;99.90;;;;;;5023902;28;20041;-82
2022/07/08 06:52:25;;;;;;;10.23;2.72;;;16.20;99.90;;;;;;5024808;28;20052;-82
2022/07/08 06:54:51;;;;;;;10.80;2.55;;;16.30;99.90;;;;;;5007738;28;20400;-82
2022/07/08 06:57:17;;;;;;;9.27;2.60;;;16.40;99.90;;;;;;5011830;28;20041;-81
2022/07/08 06:59:42;;;;;;;8.05;2.40;;;16.40;99.90;;;;;;5012033;28;20037;-81
2022/07/08 07:02:08;;;;;;;11.73;3.00;;;16.50;99.90;;;;;;5026882;28;20044;-81
2022/07/08 07:04:35;;;;;;;14.75;3.03;;;16.50;99.90;;;;;;5007936;28;20106;-81
2022/07/08 07:07:00;;;;;;;6.45;2.60;;;16.50;99.90;;;;;;5015374;28;20802;-81
2022/07/08 07:09:26;;;;;;;9.95;2.58;;;16.60;99.90;;;;;;5009485;28;20037;-82
2022/07/08 07:11:52;;;;;;;9.73;2.55;;;16.60;99.90;;;;;;5015598;28;20033;-81
2022/07/08 07:14:18;;;;;;;9.98;2.85;;;16.60;99.90;;;;;;5029159;28;20060;-82
2022/07/08 07:16:44;;;;;;;7.85;2.55;;;16.70;99.90;;;;;;5031611;28;20110;-81
2022/07/08 07:19:11;;;;;;;11.93;2.20;;;16.80;99.90;;;;;;5031884;28;20045;-85
2022/07/08 07:21:37;;;;;;;9.80;2.83;;;16.80;99.90;;;;;;5044783;28;20047;-83
2022/07/08 07:24:03;;;;;;;6.65;2.15;;;16.80;99.90;;;;;;5030740;28;20033;-85
2022/07/08 07:26:28;;;;;;;7.25;2.58;;;16.80;99.90;;;;;;5016240;28;20037;-81
2022/07/08 07:28:55;;;;;;;9.45;2.40;;;16.90;99.90;;;;;;5034179;28;20040;-81
2022/07/08 07:31:21;;;;;;;8.38;2.40;;;16.90;99.90;;;;;;5002059;28;20067;-84
2022/07/08 07:33:47;;;;;;;10.07;2.42;;;17.00;99.90;;;;;;5021151;28;20041;-81
2022/07/08 07:36:12;;;;;;;9.02;2.60;;;17.00;99.90;;;;;;5048612;28;20473;-83
2022/07/08 07:38:38;;;;;;;8.43;2.22;;;16.90;99.90;;;;;;5038638;28;20045;-81
2022/07/08 07:41:04;;;;;;;11.90;2.60;;;16.90;99.90;;;;;;5048282;28;20041;-82
2022/07/08 07:43:30;;;;;;;10.52;2.30;;;16.90;99.90;;;;;;5025370;28;20091;-83
2022/07/08 07:45:55;;;;;;;5.47;2.35;;;17.00;99.90;;;;;;5022293;28;20040;-82
2022/07/08 07:48:22;;;;;;;9.55;2.88;;;17.00;99.90;;;;;;5044865;28;20037;-81
2022/07/08 07:50:47;;;;;;;7.43;2.80;;;17.10;99.90;;;;;;5011171;28;20462;-83
2022/07/08 07:53:13;;;;;;;6.57;2.55;;;17.10;99.90;;;;;;5013150;28;20128;-81
2022/07/08 07:55:39;;;;;;;8.90;2.63;;;17.20;99.90;;;;;;4984169;28;20389;-83
2022/07/08 07:58:05;;;;;;;8.18;2.50;;;17.30;99.90;;;;;;5020245;28;20393;-81
2022/07/08 08:00:30;;;;;;;5.13;2.35;;;17.40;99.90;;;;;;5029100;28;20037;-82
2022/07/08 08:02:56;;;;;;;9.70;2.63;;;17.40;99.90;;;;;;5002214;28;20041;-82
2022/07/08 08:05:22;;;;;;;5.97;2.60;;;17.40;99.90;;;;;;5032024;28;20492;-82
2022/07/08 08:07:48;;;;;;;10.00;2.42;;;17.40;99.90;;;;;;5032216;28;20040;-81
2022/07/08 08:10:14;;;;;;;8.73;2.50;;;17.40;99.90;;;;;;5031465;28;20091;-81
2022/07/08 08:12:41;;;;;;;11.27;2.63;;;17.40;99.90;;;;;;5023097;28;20057;-81
2022/07/08 08:15:08;;;;;;;7.13;2.55;;;17.40;99.90;;;;;;5046135;28;20064;-81
2022/07/08 08:17:37;;;;;;;9.95;2.38;;;17.40;99.90;;;;;;5015458;28;20080;-81
2022/07/08 08:20:05;;;;;;;8.52;2.47;;;17.50;99.90;;;;;;5033316;28;20476;-80
2022/07/08 08:22:32;;;;;;;11.15;2.63;;;17.50;99.90;;;;;;5041551;28;20116;-81
2022/07/08 08:24:57;;;;;;;7.10;2.20;;;17.60;99.90;;;;;;5031249;28;20041;-81
2022/07/08 08:27:23;;;;;;;8.85;2.13;;;17.60;99.90;;;;;;5011102;28;20369;-82
2022/07/08 08:29:49;;;;;;;11.68;2.90;;;17.70;99.90;;;;;;5011653;28;20037;-80
2022/07/08 08:32:15;;;;;;;9.85;2.28;;;17.60;99.90;;;;;;5034646;28;20044;-80
2022/07/08 08:34:41;;;;;;;9.57;2.28;;;17.70;99.90;;;;;;5031729;28;20040;-80
2022/07/08 08:37:07;;;;;;;7.47;2.40;;;17.70;99.90;;;;;;5021824;28;20454;-81
2022/07/08 08:39:33;;;;;;;12.77;3.15;;;17.70;99.90;;;;;;5040829;28;20064;-80
2022/07/08 08:42:00;;;;;;;10.48;3.00;;;17.70;99.90;;;;;;5032316;28;20037;-80
2022/07/08 08:44:26;;;;;;;8.75;2.47;;;17.70;99.90;;;;;;5055697;28;20139;-83
2022/07/08 08:46:53;;;;;;;7.10;2.30;;;17.70;99.90;;;;;;5040420;28;20036;-81
2022/07/08 08:49:20;;;;;;;9.02;2.35;;;17.70;99.90;;;;;;5017385;28;20041;-81
2022/07/08 08:51:50;;;;;;;9.50;2.40;;;17.80;99.90;;;;;;5017880;28;20037;-81
2022/07/08 08:54:17;;;;;;;11.82;2.38;;;17.80;99.90;;;;;;5032168;28;20045;-80
2022/07/08 08:56:48;;;;;;;5.43;1.92;;;17.80;99.90;;;;;;5008807;28;20060;-82
2022/07/08 08:59:18;;;;;;;7.68;2.30;;;17.90;99.90;;;;;;5030056;28;20123;-80
2022/07/08 09:01:44;;;;;;;7.57;2.22;;;18.00;99.90;;;;;;5035446;28;20041;-80
2022/07/08 09:04:11;;;;;;;8.45;2.35;;;18.10;99.90;;;;;;5048704;28;20040;-80
2022/07/08 09:06:40;;;;;;;4.28;2.00;;;18.20;99.90;;;;;;5044267;28;20033;-83
2022/07/08 09:09:06;;;;;;;8.05;3.20;;;18.30;99.90;;;;;;5026567;28;20101;-83
2022/07/08 09:11:34;;;;;;;7.95;2.50;;;18.30;99.90;;;;;;5048659;28;20045;-82
2022/07/08 09:14:17;;;;;;;7.22;2.60;;;18.20;99.90;;;;;;5034526;28;20049;-83
2022/07/08 09:17:06;;;;;;;9.45;2.90;;;18.20;99.90;;;;;;5031698;28;20569;-81
2022/07/08 09:19:32;;;;;;;9.30;2.90;;;18.20;99.90;;;;;;5035645;28;20395;-82
2022/07/08 09:21:58;;;;;;;6.75;2.22;;;18.20;99.90;;;;;;5035199;28;20037;-82
2022/07/08 09:24:23;;;;;;;7.22;2.38;;;18.30;99.90;;;;;;5020096;28;20043;-81
2022/07/08 09:26:54;;;;;;;9.98;2.65;;;18.30;99.90;;;;;;5033843;28;20033;-82
2022/07/08 09:29:20;;;;;;;9.43;2.58;;;18.40;99.90;;;;;;5047639;28;20600;-81
2022/07/08 09:31:46;;;;;;;7.00;2.85;;;18.60;99.90;;;;;;5033312;28;20048;-83
2022/07/08 09:34:16;;;;;;;6.45;2.80;;;18.60;99.90;;;;;;5020155;28;20048;-81
2022/07/08 09:36:49;;;;;;;6.22;2.72;;;18.60;99.90;;;;;;5041393;28;20040;-83
2022/07/08 09:39:28;;;;;;;6.57;2.80;;;18.60;99.90;;;;;;5024050;28;20066;-82
2022/07/08 09:41:54;;;;;;;7.10;2.88;;;18.70;99.90;;;;;;5036155;28;20040;-83
2022/07/08 09:44:23;;;;;;;6.45;2.65;;;18.70;99.90;;;;;;5017701;28;20043;-81
2022/07/08 09:46:49;;;;;;;8.50;2.53;;;18.80;99.90;;;;;;5030815;28;20569;-81
2022/07/08 09:49:32;;;;;;;7.55;3.00;;;18.90;99.90;;;;;;5033573;28;20040;-82
2022/07/08 09:52:00;;;;;;;6.72;2.30;;;19.00;99.90;;;;;;5032937;28;20068;-83
2022/07/08 09:54:27;;;;;;;6.63;2.45;;;19.00;99.90;;;;;;5030180;28;20613;-81
2022/07/08 09:57:07;;;;;;;5.90;2.78;;;19.10;99.90;;;;;;5026597;28;20133;-82
2022/07/08 09:59:35;;;;;;;8.02;3.65;;;19.10;99.90;;;;;;5036521;28;20063;-82
2022/07/08 10:02:02;;;;;;;6.70;2.75;;;19.20;99.90;;;;;;5037420;28;20392;-82
2022/07/08 10:04:28;;;;;;;10.13;3.40;;;19.20;99.90;;;;;;5031260;28;20044;-81
2022/07/08 10:06:56;;;;;;;9.98;3.05;;;19.20;99.90;;;;;;5033622;28;20436;-81
2022/07/08 10:09:24;;;;;;;7.47;2.70;;;19.10;99.90;;;;;;5038838;28;20442;-80
2022/07/08 10:11:51;;;;;;;5.65;2.78;;;19.10;99.90;;;;;;5027702;28;20094;-81
2022/07/08 10:14:18;;;;;;;7.85;2.95;;;19.10;99.90;;;;;;5034023;28;20055;-81
2022/07/08 10:16:48;;;;;;;7.60;3.00;;;19.10;99.90;;;;;;5047310;28;20395;-81
2022/07/08 10:19:24;;;;;;;7.45;3.55;;;19.00;99.90;;;;;;5042002;28;20138;-81
2022/07/08 10:21:52;;;;;;;6.47;2.72;;;19.00;99.90;;;;;;5044238;28;20075;-81
2022/07/08 10:24:24;;;;;;;9.57;2.80;;;18.90;99.90;;;;;;5016096;28;20043;-82
2022/07/08 10:26:50;;;;;;;6.18;2.55;;;18.90;99.90;;;;;;5015994;28;20115;-81
2022/07/08 10:29:15;;;;;;;5.43;2.58;;;19.00;99.90;;;;;;5015728;28;20136;-83
2022/07/08 10:31:52;;;;;;;4.43;2.55;;;19.00;99.90;;;;;;5025969;28;20044;-81
2022/07/08 10:34:30;;;;;;;6.07;2.42;;;19.10;99.90;;;;;;5029662;28;20041;-82
2022/07/08 10:36:56;;;;;;;6.35;2.38;;;19.10;99.90;;;;;;5019423;28;20041;-80
2022/07/08 10:39:38;;;;;;;7.22;2.65;;;19.10;99.90;;;;;;5051689;28;20037;-82
2022/07/08 10:42:05;;;;;;;7.18;2.83;;;19.10;99.90;;;;;;5027739;28;20040;-81
2022/07/08 10:44:45;;;;;;;4.60;2.15;;;19.20;99.90;;;;;;5040993;28;20492;-81
2022/07/08 10:47:16;;;;;;;4.22;2.33;;;19.40;99.90;;;;;;5016521;28;20130;-81
2022/07/08 10:49:46;;;;;;;7.70;2.80;;;19.60;99.90;;;;;;5033888;28;20488;-81
2022/07/08 10:52:13;;;;;;;8.32;2.85;;;19.90;99.90;;;;;;5011180;28;20110;-83
2022/07/08 10:54:39;;;;;;;6.70;2.88;;;20.10;99.90;;;;;;5026175;28;20124;-82
2022/07/08 10:57:16;;;;;;;7.40;2.72;;;20.30;99.90;;;;;;5034903;28;20182;-83
2022/07/08 11:00:06;;;;;;;6.18;2.40;;;20.40;99.90;;;;;;5012210;28;20079;-82
2022/07/08 11:02:32;;;;;;;8.07;3.13;;;20.40;99.90;;;;;;5025745;28;20423;-82
2022/07/08 11:04:58;;;;;;;7.90;2.80;;;20.50;99.90;;;;;;5016438;28;20037;-81
2022/07/08 11:07:26;;;;;;;5.72;3.22;;;20.40;99.90;;;;;;5020923;28;20123;-81
2022/07/08 11:10:10;;;;;;;7.95;2.78;;;20.50;99.90;;;;;;5036426;28;20044;-82
2022/07/08 11:12:41;;;;;;;6.22;3.28;;;20.50;99.90;;;;;;5041778;28;20097;-82
2022/07/08 11:15:12;;;;;;;8.32;3.08;;;20.50;99.90;;;;;;5036525;28;20489;-83
2022/07/08 11:17:39;;;;;;;9.93;3.13;;;20.80;99.90;;;;;;5044815;28;20032;-81
2022/07/08 11:20:11;;;;;;;8.48;2.90;;;21.00;99.90;;;;;;5078850;28;20044;-81
2022/07/08 11:22:38;;;;;;;8.05;3.15;;;21.10;99.90;;;;;;5042729;28;20145;-81
2022/07/08 11:25:06;;;;;;;7.43;3.13;;;21.20;99.90;;;;;;5013339;28;20039;-81
2022/07/08 11:27:35;;;;;;;5.35;2.83;;;21.30;99.90;;;;;;5045635;28;20398;-81
2022/07/08 11:30:05;;;;;;;5.60;3.05;;;21.30;99.90;;;;;;5035178;28;20075;-81
2022/07/08 11:32:31;;;;;;;6.00;2.92;;;21.30;99.90;;;;;;5023039;28;20064;-81
2022/07/08 11:34:57;;;;;;;4.88;3.00;;;21.30;99.90;;;;;;5070097;28;20491;-82
2022/07/08 11:37:24;;;;;;;6.28;2.97;;;21.30;99.90;;;;;;5051967;28;20045;-82
2022/07/08 11:39:50;;;;;;;6.65;3.00;;;21.30;99.90;;;;;;5034889;28;20040;-82
2022/07/08 11:42:17;;;;;;;9.02;3.17;;;21.30;99.90;;;;;;5018236;28;20044;-81
2022/07/08 11:44:43;;;;;;;5.25;2.60;;;21.20;99.90;;;;;;5027145;28;20028;-81
2022/07/08 11:47:10;;;;;;;9.70;3.22;;;21.30;99.90;;;;;;5024611;28;20062;-82
2022/07/08 11:49:43;;;;;;;5.63;2.63;;;21.50;99.90;;;;;;5016077;28;20052;-81
2022/07/08 11:52:10;;;;;;;4.57;2.53;;;21.80;99.90;;;;;;5015484;28;20036;-82
2022/07/08 11:54:35;;;;;;;7.03;3.30;;;22.20;99.90;;;;;;5020408;28;20044;-81
2022/07/08 11:57:03;;;;;;;5.78;2.80;;;22.20;99.90;;;;;;5020122;28;20029;-82
2022/07/08 11:59:31;;;;;;;7.45;2.88;;;22.10;99.90;;;;;;5029740;28;20450;-82
2022/07/08 12:01:59;;;;;;;6.53;2.97;;;22.20;99.90;;;;;;5024161;28;20083;-82
2022/07/08 12:04:25;;;;;;;3.95;2.42;;;22.10;99.90;;;;;;5037893;28;20033;-83
2022/07/08 12:06:53;;;;;;;7.70;2.70;;;22.20;99.90;;;;;;5037037;28;20131;-82
2022/07/08 12:09:20;;;;;;;3.15;2.30;;;22.30;99.90;;;;;;5034089;28;20396;-81
2022/07/08 12:11:49;;;;;;;4.45;2.15;;;22.50;99.90;;;;;;5029431;28;20040;-82
2022/07/08 12:14:16;;;;;;;7.68;2.78;;;22.70;99.90;;;;;;5054024;28;20051;-82
2022/07/08 12:16:53;;;;;;;8.48;2.90;;;22.80;99.90;;;;;;5019647;28;20460;-84
2022/07/08 12:19:34;;;;;;;5.75;2.33;;;22.80;99.90;;;;;;5027391;28;20105;-80
2022/07/08 12:22:02;;;;;;;5.18;2.28;;;22.90;99.90;;;;;;5039055;28;20045;-81
2022/07/08 12:24:36;;;;;;;8.20;2.63;;;22.80;99.90;;;;;;5014967;28;20041;-81
2022/07/08 12:27:05;;;;;;;4.70;2.42;;;22.70;99.90;;;;;;5031139;28;20480;-81
2022/07/08 12:29:34;;;;;;;7.28;2.83;;;22.60;99.90;;;;;;5051667;28;20036;-82
2022/07/08 12:32:00;;;;;;;7.60;2.70;;;22.40;99.90;;;;;;5017552;28;20472;-81
2022/07/08 12:34:26;;;;;;;5.95;2.42;;;22.40;99.90;;;;;;5035921;28;20040;-82
2022/07/08 12:36:52;;;;;;;4.10;2.13;;;22.50;99.90;;;;;;5035319;28;20492;-83
2022/07/08 12:39:19;;;;;;;4.93;2.45;;;22.50;99.90;;;;;;5047796;28;20412;-81
2022/07/08 12:42:04;;;;;;;4.57;2.08;;;22.50;99.90;;;;;;5030877;28;20032;-82
2022/07/08 12:44:31;;;;;;;5.90;2.40;;;22.50;99.90;;;;;;5031740;28;20075;-82
2022/07/08 12:46:58;;;;;;;4.57;2.72;;;22.30;99.90;;;;;;5038453;28;20036;-81
2022/07/08 12:49:29;;;;;;;5.80;2.17;;;22.20;99.90;;;;;;5036233;28;20048;-83